Time;durP1;ratioP1;P1;durP2;ratioP2;P2;SDS_P1;SDS_P2;PMS_P1;PMS_P2;Temp;Humidity;BMP_temperature;BMP_pressure;BME280_temperature;BME280_humidity;BME280_pressure;Samples;Min_cycle;Max_cycle;Signal;HPM_P1;HPM_P2
2023/05/16 00:00:19;;;;;;;;;;;;;;;12.30;66.51;92326.00;2048058;70;20104;-74
2023/05/16 00:02:44;;;;;;;;;;;;;;;12.28;67.62;92334.38;2048775;70;20058;-74
2023/05/16 00:05:13;;;;;;;;;;;;;;;12.26;67.44;92335.00;2048288;70;20086;-74
2023/05/16 00:07:40;;;;;;;;;;;;;;;12.16;68.11;92334.50;2048778;70;20735;-72
2023/05/16 00:10:06;;;;;;;;;;;;;;;12.21;66.74;92339.72;2048751;70;20047;-73
2023/05/16 00:12:32;;;;;;;;;;;;;;;12.14;68.08;92331.59;2048136;70;20055;-73
2023/05/16 00:14:58;;;;;;;;;;;;;;;12.25;66.27;92336.38;2048627;70;20054;-73
2023/05/16 00:17:27;;;;;;;;;;;;;;;12.14;66.89;92337.22;2048704;70;20047;-73
2023/05/16 00:19:57;;;;;;;;;;;;;;;12.17;66.97;92330.31;2048500;70;20132;-73
2023/05/16 00:22:26;;;;;;;;;;;;;;;12.10;67.99;92325.75;2048807;70;20568;-73
2023/05/16 00:24:52;;;;;;;;;;;;;;;12.11;67.69;92330.03;2048453;70;20063;-74
2023/05/16 00:27:18;;;;;;;;;;;;;;;12.16;67.68;92318.31;2048362;70;20402;-74
2023/05/16 00:29:44;;;;;;;;;;;;;;;12.24;67.37;92318.00;2045403;70;20090;-74
2023/05/16 00:32:09;;;;;;;;;;;;;;;12.25;66.93;92324.34;2048191;70;20043;-72
2023/05/16 00:34:35;;;;;;;;;;;;;;;12.22;67.39;92320.69;2047964;70;20082;-73
2023/05/16 00:37:00;;;;;;;;;;;;;;;12.15;68.35;92322.50;2048642;70;20082;-73
2023/05/16 00:39:26;;;;;;;;;;;;;;;12.15;68.06;92325.31;2048061;70;20066;-74
2023/05/16 00:41:53;;;;;;;;;;;;;;;12.10;68.50;92320.13;2047984;70;20051;-73
2023/05/16 00:44:19;;;;;;;;;;;;;;;12.07;68.34;92319.28;2048103;70;20043;-73
2023/05/16 00:46:45;;;;;;;;;;;;;;;12.10;68.48;92306.75;2054026;70;20065;-73
2023/05/16 00:49:10;;;;;;;;;;;;;;;12.11;68.64;92302.56;2068134;69;20085;-74
2023/05/16 00:51:37;;;;;;;;;;;;;;;12.13;67.22;92291.34;2068303;69;20074;-74
2023/05/16 00:54:03;;;;;;;;;;;;;;;12.11;67.55;92302.56;2055122;70;20061;-74
2023/05/16 00:56:29;;;;;;;;;;;;;;;12.12;67.58;92301.19;2067928;69;20141;-73
2023/05/16 00:58:55;;;;;;;;;;;;;;;12.13;67.28;92296.25;2068279;69;20196;-73
2023/05/16 01:01:21;;;;;;;;;;;;;;;12.03;68.05;92288.03;2067529;69;20074;-72
2023/05/16 01:03:47;;;;;;;;;;;;;;;12.07;67.47;92293.16;2068016;69;20050;-72
2023/05/16 01:06:12;;;;;;;;;;;;;;;12.14;66.56;92284.38;2068157;69;20062;-73
2023/05/16 01:08:39;;;;;;;;;;;;;;;12.11;67.25;92290.53;2068064;69;20054;-74
2023/05/16 01:11:09;;;;;;;;;;;;;;;12.13;67.42;92282.88;2055055;70;20054;-74
2023/05/16 01:13:55;;;;;;;;;;;;;;;12.12;68.11;92280.72;2055048;70;20439;-74
2023/05/16 01:16:43;;;;;;;;;;;;;;;12.07;67.83;92295.97;2068084;69;20062;-74
2023/05/16 01:19:28;;;;;;;;;;;;;;;12.10;67.00;92289.09;2068152;69;20059;-75
2023/05/16 01:22:14;;;;;;;;;;;;;;;12.12;67.09;92295.53;2055172;70;20442;-73
2023/05/16 01:24:47;;;;;;;;;;;;;;;12.03;67.78;92287.31;2067461;69;20052;-74
2023/05/16 01:27:16;;;;;;;;;;;;;;;12.02;68.49;92280.94;2055148;70;20137;-75
2023/05/16 01:29:42;;;;;;;;;;;;;;;12.06;67.90;92283.25;2068029;69;20058;-74
2023/05/16 01:32:08;;;;;;;;;;;;;;;12.05;68.13;92276.88;2068151;69;20057;-74
2023/05/16 01:34:34;;;;;;;;;;;;;;;12.06;67.83;92280.41;2055278;70;20131;-75
2023/05/16 01:37:08;;;;;;;;;;;;;;;12.06;68.57;92277.59;2065464;69;20472;-75
2023/05/16 01:39:36;;;;;;;;;;;;;;;12.06;67.98;92280.41;2055444;69;20062;-74
2023/05/16 01:42:05;;;;;;;;;;;;;;;12.05;68.24;92273.28;2055226;69;20098;-74
2023/05/16 01:44:50;;;;;;;;;;;;;;;12.05;68.12;92270.47;2055174;70;20139;-74
2023/05/16 01:47:22;;;;;;;;;;;;;;;12.00;68.46;92275.19;2050433;69;20074;-74
2023/05/16 01:49:54;;;;;;;;;;;;;;;11.99;68.99;92270.91;2047841;70;20438;-74
2023/05/16 01:52:43;;;;;;;;;;;;;;;12.04;68.32;92272.56;2048082;70;20170;-74
2023/05/16 01:55:11;;;;;;;;;;;;;;;12.05;68.05;92271.22;2046976;70;20054;-74
2023/05/16 01:57:37;;;;;;;;;;;;;;;12.01;68.13;92270.31;2048010;70;20059;-72
2023/05/16 02:00:04;;;;;;;;;;;;;;;11.89;68.69;92270.44;2048243;70;20078;-73
2023/05/16 02:02:39;;;;;;;;;;;;;;;11.93;68.28;92270.63;2048986;70;20051;-73
2023/05/16 02:05:05;;;;;;;;;;;;;;;12.00;68.23;92268.81;2049046;70;20051;-74
2023/05/16 02:07:31;;;;;;;;;;;;;;;11.94;68.49;92270.00;2049046;70;20487;-73
2023/05/16 02:09:56;;;;;;;;;;;;;;;11.95;68.30;92262.25;2048730;69;20051;-73
2023/05/16 02:12:23;;;;;;;;;;;;;;;12.05;67.99;92259.94;2049047;70;20234;-73
2023/05/16 02:14:49;;;;;;;;;;;;;;;11.91;68.32;92259.22;2049355;69;20054;-74
2023/05/16 02:17:15;;;;;;;;;;;;;;;11.83;68.67;92261.69;2048351;70;20102;-73
2023/05/16 02:19:41;;;;;;;;;;;;;;;11.70;69.65;92271.59;2048444;70;20098;-73
2023/05/16 02:22:07;;;;;;;;;;;;;;;11.94;67.74;92261.53;2048391;70;20058;-73
2023/05/16 02:24:32;;;;;;;;;;;;;;;11.85;68.16;92256.84;2048039;70;20050;-73
2023/05/16 02:26:58;;;;;;;;;;;;;;;11.86;68.61;92255.47;2048351;70;20050;-73
2023/05/16 02:29:24;;;;;;;;;;;;;;;11.82;68.60;92251.72;2048870;70;20130;-73
2023/05/16 02:31:50;;;;;;;;;;;;;;;11.78;69.46;92252.25;2048304;70;20229;-74
2023/05/16 02:34:15;;;;;;;;;;;;;;;11.89;68.76;92254.22;2048287;70;20121;-74
2023/05/16 02:36:41;;;;;;;;;;;;;;;11.75;68.70;92244.31;2048300;70;20155;-74
2023/05/16 02:39:09;;;;;;;;;;;;;;;11.85;67.45;92247.66;2048670;70;20112;-74
2023/05/16 02:41:34;;;;;;;;;;;;;;;11.80;69.16;92246.72;2042611;70;20507;-73
2023/05/16 02:44:00;;;;;;;;;;;;;;;11.79;69.06;92253.72;2048284;70;20078;-73
2023/05/16 02:46:26;;;;;;;;;;;;;;;11.78;69.29;92252.25;2064706;69;20096;-73
2023/05/16 02:48:52;;;;;;;;;;;;;;;11.74;68.81;92254.16;2071029;69;20078;-74
2023/05/16 02:51:19;;;;;;;;;;;;;;;11.76;69.72;92248.59;2071122;69;20435;-73
2023/05/16 02:53:45;;;;;;;;;;;;;;;11.73;69.60;92247.78;2071544;69;20052;-73
2023/05/16 02:56:10;;;;;;;;;;;;;;;11.71;69.59;92245.59;2068038;69;20076;-73
2023/05/16 02:58:36;;;;;;;;;;;;;;;11.69;69.82;92244.75;2071091;69;20097;-74
2023/05/16 03:01:03;;;;;;;;;;;;;;;11.73;69.40;92238.56;2071496;69;20052;-73
2023/05/16 03:03:29;;;;;;;;;;;;;;;11.79;68.48;92231.16;2071734;69;20073;-73
2023/05/16 03:05:55;;;;;;;;;;;;;;;11.07;73.14;92234.59;2071630;69;20130;-72
2023/05/16 03:08:20;;;;;;;;;;;;;;;11.24;72.52;92233.34;2071746;69;20534;-72
2023/05/16 03:10:45;;;;;;;;;;;;;;;11.50;71.08;92229.03;2071012;69;20052;-72
2023/05/16 03:13:12;;;;;;;;;;;;;;;11.63;69.76;92228.25;2070927;69;20439;-73
2023/05/16 03:15:37;;;;;;;;;;;;;;;11.47;70.70;92233.09;2068089;69;20048;-73
2023/05/16 03:18:03;;;;;;;;;;;;;;;11.53;70.58;92233.41;2071279;69;20053;-74
2023/05/16 03:20:28;;;;;;;;;;;;;;;11.59;69.51;92224.50;2071776;69;20084;-74
2023/05/16 03:22:55;;;;;;;;;;;;;;;11.26;71.61;92227.81;2071483;69;20060;-74
2023/05/16 03:25:21;;;;;;;;;;;;;;;11.43;70.50;92230.81;2071419;69;20084;-74
2023/05/16 03:27:50;;;;;;;;;;;;;;;11.37;70.78;92230.50;2071092;69;20118;-75
2023/05/16 03:30:18;;;;;;;;;;;;;;;11.27;72.34;92232.06;2070932;69;20144;-75
2023/05/16 03:32:44;;;;;;;;;;;;;;;10.86;73.97;92225.09;2071038;69;20051;-74
2023/05/16 03:35:10;;;;;;;;;;;;;;;10.80;72.81;92221.97;2071418;69;20053;-74
2023/05/16 03:37:36;;;;;;;;;;;;;;;10.71;73.87;92222.88;2071574;69;20084;-74
2023/05/16 03:40:04;;;;;;;;;;;;;;;11.10;72.36;92216.44;2071008;69;20092;-74
2023/05/16 03:42:31;;;;;;;;;;;;;;;11.36;70.05;92223.44;2071449;69;20049;-75
2023/05/16 03:44:56;;;;;;;;;;;;;;;11.36;70.18;92222.66;2069897;69;20501;-74
2023/05/16 03:47:22;;;;;;;;;;;;;;;11.42;69.94;92225.81;2055561;70;20061;-73
2023/05/16 03:49:48;;;;;;;;;;;;;;;11.28;70.35;92227.91;2055392;69;20481;-73
2023/05/16 03:52:14;;;;;;;;;;;;;;;10.90;72.00;92224.56;2055384;69;20054;-74
2023/05/16 03:54:39;;;;;;;;;;;;;;;10.67;73.89;92231.88;2055251;69;20046;-73
2023/05/16 03:57:05;;;;;;;;;;;;;;;10.97;73.20;92234.06;2055092;70;20560;-74
2023/05/16 03:59:31;;;;;;;;;;;;;;;10.89;73.83;92228.75;2055471;69;20038;-73
2023/05/16 04:01:57;;;;;;;;;;;;;;;10.83;74.14;92234.81;2055444;70;20145;-74
2023/05/16 04:04:22;;;;;;;;;;;;;;;10.88;74.42;92230.84;2055302;69;20481;-74
2023/05/16 04:06:49;;;;;;;;;;;;;;;11.15;71.76;92230.09;2055353;69;20072;-73
2023/05/16 04:09:15;;;;;;;;;;;;;;;11.25;71.73;92234.81;2055243;69;20429;-74
2023/05/16 04:11:40;;;;;;;;;;;;;;;11.01;73.37;92237.09;2066683;69;20479;-73
2023/05/16 04:14:07;;;;;;;;;;;;;;;10.87;73.49;92228.66;2052011;69;20055;-74
2023/05/16 04:16:32;;;;;;;;;;;;;;;10.41;75.28;92233.28;2051812;70;20061;-74
2023/05/16 04:18:58;;;;;;;;;;;;;;;11.01;72.50;92237.09;2051722;69;20050;-74
2023/05/16 04:21:24;;;;;;;;;;;;;;;11.22;72.06;92224.78;2052253;70;20058;-75
2023/05/16 04:23:52;;;;;;;;;;;;;;;11.32;71.09;92228.13;2051767;70;20046;-73
2023/05/16 04:26:21;;;;;;;;;;;;;;;11.18;71.78;92233.78;2051580;70;20079;-74
2023/05/16 04:28:46;;;;;;;;;;;;;;;11.25;71.38;92220.72;2048760;70;20057;-73
2023/05/16 04:31:13;;;;;;;;;;;;;;;11.22;71.87;92225.50;2052268;70;20051;-74
2023/05/16 04:33:38;;;;;;;;;;;;;;;11.20;70.74;92228.97;2051998;70;20050;-74
2023/05/16 04:36:04;;;;;;;;;;;;;;;11.14;71.63;92225.84;2051878;70;20058;-72
2023/05/16 04:38:31;;;;;;;;;;;;;;;11.15;72.01;92230.09;2052000;70;20074;-73
2023/05/16 04:40:58;;;;;;;;;;;;;;;11.09;72.25;92229.81;2045907;69;20051;-74
2023/05/16 04:43:23;;;;;;;;;;;;;;;11.26;71.17;92233.44;2052300;69;20138;-73
2023/05/16 04:45:49;;;;;;;;;;;;;;;11.29;72.17;92232.19;2048702;70;20401;-73
2023/05/16 04:48:15;;;;;;;;;;;;;;;11.25;71.79;92232.72;2051676;70;20066;-73
2023/05/16 04:50:40;;;;;;;;;;;;;;;11.03;73.03;92235.09;2051798;70;20089;-74
2023/05/16 04:53:06;;;;;;;;;;;;;;;10.98;73.02;92235.53;2048663;70;20059;-74
2023/05/16 04:55:31;;;;;;;;;;;;;;;11.19;71.53;92226.78;2048560;70;20054;-74
2023/05/16 04:57:57;;;;;;;;;;;;;;;11.21;72.19;92235.31;2048678;69;20053;-74
2023/05/16 05:00:23;;;;;;;;;;;;;;;11.28;71.82;92230.72;2048816;70;20560;-74
2023/05/16 05:02:48;;;;;;;;;;;;;;;11.24;72.23;92236.88;2052039;70;20055;-75
2023/05/16 05:05:14;;;;;;;;;;;;;;;11.29;72.56;92235.00;2048836;69;20049;-74
2023/05/16 05:07:39;;;;;;;;;;;;;;;11.28;72.15;92236.38;2052262;70;20139;-74
2023/05/16 05:10:06;;;;;;;;;;;;;;;11.37;71.44;92230.50;2051930;69;20120;-74
2023/05/16 05:12:32;;;;;;;;;;;;;;;11.34;71.97;92234.56;2051971;70;20145;-74
2023/05/16 05:14:58;;;;;;;;;;;;;;;11.37;71.40;92224.88;2052161;70;20139;-74
2023/05/16 05:17:23;;;;;;;;;;;;;;;11.29;71.88;92227.28;2052331;69;20483;-74
2023/05/16 05:19:49;;;;;;;;;;;;;;;11.41;71.15;92233.53;2052174;70;20047;-74
2023/05/16 05:22:15;;;;;;;;;;;;;;;11.16;72.11;92237.19;2052093;69;20047;-74
2023/05/16 05:24:40;;;;;;;;;;;;;;;11.27;71.51;92227.19;2048668;70;20132;-74
2023/05/16 05:27:06;;;;;;;;;;;;;;;11.22;72.14;92231.13;2052091;70;20074;-75
2023/05/16 05:29:31;;;;;;;;;;;;;;;11.33;71.84;92223.94;2052315;70;20465;-74
2023/05/16 05:31:57;;;;;;;;;;;;;;;11.50;70.78;92233.91;2052167;70;20051;-74
2023/05/16 05:34:22;;;;;;;;;;;;;;;11.48;72.02;92234.56;2052323;69;20575;-75
2023/05/16 05:36:48;;;;;;;;;;;;;;;11.44;72.42;92231.53;2052469;70;20061;-74
2023/05/16 05:39:14;;;;;;;;;;;;;;;11.55;71.95;92225.06;2052532;70;20046;-74
2023/05/16 05:41:39;;;;;;;;;;;;;;;11.54;70.94;92222.84;2052546;70;20053;-74
2023/05/16 05:44:06;;;;;;;;;;;;;;;11.55;72.06;92227.88;2052584;70;20150;-74
2023/05/16 05:46:33;;;;;;;;;;;;;;;11.45;72.23;92230.16;2052537;70;20047;-75
2023/05/16 05:48:59;;;;;;;;;;;;;;;11.51;71.41;92235.41;2049138;70;20081;-74
2023/05/16 05:51:25;;;;;;;;;;;;;;;11.45;71.64;92238.63;2052535;69;20098;-75
2023/05/16 05:53:51;;;;;;;;;;;;;;;11.31;72.14;92232.28;2052519;70;20132;-75
2023/05/16 05:56:17;;;;;;;;;;;;;;;11.05;72.90;92229.59;2058579;69;20052;-75
2023/05/16 05:58:44;;;;;;;;;;;;;;;10.87;74.68;92226.56;2075430;69;20060;-74
2023/05/16 06:01:10;;;;;;;;;;;;;;;11.10;73.65;92228.44;2069371;69;20075;-75
2023/05/16 06:03:35;;;;;;;;;;;;;;;11.38;72.25;92225.59;2075595;69;20419;-75
2023/05/16 06:06:01;;;;;;;;;;;;;;;11.58;71.18;92212.50;2075438;69;20104;-74
2023/05/16 06:08:26;;;;;;;;;;;;;;;11.24;72.64;92202.34;2075635;69;20105;-76
2023/05/16 06:10:53;;;;;;;;;;;;;;;10.91;74.52;92214.78;2075309;69;20063;-74
2023/05/16 06:13:18;;;;;;;;;;;;;;;10.93;74.96;92212.78;2075380;69;20125;-74
2023/05/16 06:15:48;;;;;;;;;;;;;;;10.82;74.76;92216.44;2075454;69;20501;-74
2023/05/16 06:18:15;;;;;;;;;;;;;;;11.25;73.40;92215.06;2075595;69;20147;-74
2023/05/16 06:20:40;;;;;;;;;;;;;;;11.42;72.84;92214.53;2075367;69;20475;-75
2023/05/16 06:23:05;;;;;;;;;;;;;;;11.50;72.32;92220.59;2075390;69;20144;-74
2023/05/16 06:25:31;;;;;;;;;;;;;;;11.62;71.24;92215.53;2075298;69;20054;-75
2023/05/16 06:27:57;;;;;;;;;;;;;;;11.66;71.83;92221.38;2075514;69;20056;-76
2023/05/16 06:30:24;;;;;;;;;;;;;;;11.31;73.13;92221.75;2072058;69;20096;-75
2023/05/16 06:32:49;;;;;;;;;;;;;;;11.26;73.51;92220.06;2075328;69;20121;-74
2023/05/16 06:35:15;;;;;;;;;;;;;;;11.28;73.63;92211.75;2075297;69;20048;-75
2023/05/16 06:37:40;;;;;;;;;;;;;;;11.24;73.70;92214.34;2075359;69;20068;-74
2023/05/16 06:40:06;;;;;;;;;;;;;;;11.18;73.76;92208.41;2075161;69;20401;-74
2023/05/16 06:42:32;;;;;;;;;;;;;;;11.11;75.02;92210.19;2075270;69;20119;-75
2023/05/16 06:44:57;;;;;;;;;;;;;;;11.29;73.98;92216.00;2071833;69;20114;-75
2023/05/16 06:47:23;;;;;;;;;;;;;;;11.23;74.73;92207.25;2075120;69;20447;-75
2023/05/16 06:49:49;;;;;;;;;;;;;;;11.51;74.15;92216.41;2072109;69;20427;-74
2023/05/16 06:52:15;;;;;;;;;;;;;;;11.62;72.90;92218.34;2075347;69;20666;-75
2023/05/16 06:54:41;;;;;;;;;;;;;;;11.60;72.70;92211.91;2075181;69;20067;-75
2023/05/16 06:57:07;;;;;;;;;;;;;;;11.63;72.80;92205.69;2075477;69;20045;-75
2023/05/16 06:59:33;;;;;;;;;;;;;;;11.61;72.29;92211.25;2075442;69;20464;-75
2023/05/16 07:02:00;;;;;;;;;;;;;;;11.57;72.61;92202.59;2075259;69;20049;-75
2023/05/16 07:04:26;;;;;;;;;;;;;;;11.69;71.27;92197.56;2075225;69;20040;-75
2023/05/16 07:06:52;;;;;;;;;;;;;;;11.33;74.20;92202.13;2075287;69;20483;-75
2023/05/16 07:09:17;;;;;;;;;;;;;;;11.48;74.39;92200.75;2075194;69;20056;-75
2023/05/16 07:11:43;;;;;;;;;;;;;;;11.04;75.30;92193.59;2075509;69;20044;-75
2023/05/16 07:14:08;;;;;;;;;;;;;;;11.23;75.87;92198.09;2074869;69;20083;-75
2023/05/16 07:16:35;;;;;;;;;;;;;;;11.39;75.10;92196.78;2075162;69;20051;-75
2023/05/16 07:19:01;;;;;;;;;;;;;;;11.40;75.04;92198.25;2071838;69;20044;-75
2023/05/16 07:21:26;;;;;;;;;;;;;;;11.44;75.33;92198.44;2072039;69;20044;-75
2023/05/16 07:23:52;;;;;;;;;;;;;;;11.23;75.37;92201.63;2075201;69;20125;-75
2023/05/16 07:26:17;;;;;;;;;;;;;;;11.17;76.32;92204.84;2071668;69;20312;-75
2023/05/16 07:28:43;;;;;;;;;;;;;;;11.36;75.17;92202.94;2075211;69;20050;-76
2023/05/16 07:31:08;;;;;;;;;;;;;;;11.51;74.19;92205.13;2071817;69;20044;-73
2023/05/16 07:33:34;;;;;;;;;;;;;;;11.36;75.56;92209.34;2075257;69;20048;-73
2023/05/16 07:36:00;;;;;;;;;;;;;;;11.61;74.29;92205.63;2075195;69;20049;-73
2023/05/16 07:38:26;;;;;;;;;;;;;;;11.97;73.11;92199.59;2071812;69;20515;-74
2023/05/16 07:40:51;;;;;;;;;;;;;;;12.16;71.57;92213.19;2075251;69;20075;-73
2023/05/16 07:43:17;;;;;;;;;;;;;;;11.85;70.52;92203.25;2075386;69;20059;-74
2023/05/16 07:45:43;;;;;;;;;;;;;;;11.93;71.23;92208.56;2075242;69;20068;-73
2023/05/16 07:48:09;;;;;;;;;;;;;;;12.09;72.34;92214.25;2075262;69;20083;-75
2023/05/16 07:50:34;;;;;;;;;;;;;;;11.84;72.03;92215.91;2075124;69;20112;-74
2023/05/16 07:53:00;;;;;;;;;;;;;;;12.09;71.07;92212.16;2075069;69;20052;-74
2023/05/16 07:55:26;;;;;;;;;;;;;;;11.29;73.27;92218.09;2075195;69;20045;-73
2023/05/16 07:57:51;;;;;;;;;;;;;;;11.66;74.11;92212.19;2071981;69;20056;-74
2023/05/16 08:00:17;;;;;;;;;;;;;;;11.87;72.38;92214.66;2075274;69;20048;-73
2023/05/16 08:02:44;;;;;;;;;;;;;;;11.63;73.96;92216.97;2075194;69;20497;-73
2023/05/16 08:05:09;;;;;;;;;;;;;;;11.54;73.42;92217.22;2075196;69;20052;-74
2023/05/16 08:07:35;;;;;;;;;;;;;;;11.68;73.01;92213.03;2075079;69;20048;-74
2023/05/16 08:10:00;;;;;;;;;;;;;;;11.65;73.50;92203.00;2074973;69;20584;-74
2023/05/16 08:12:26;;;;;;;;;;;;;;;11.73;73.65;92202.66;2075296;69;20056;-75
2023/05/16 08:14:51;;;;;;;;;;;;;;;11.52;74.85;92211.50;2075117;69;20064;-75
2023/05/16 08:17:17;;;;;;;;;;;;;;;11.95;71.96;92212.22;2071825;69;20072;-74
2023/05/16 08:19:42;;;;;;;;;;;;;;;11.99;71.65;92206.03;2074890;69;20053;-75
2023/05/16 08:22:08;;;;;;;;;;;;;;;11.63;73.67;92216.97;2075004;69;20056;-74
2023/05/16 08:24:33;;;;;;;;;;;;;;;11.78;74.02;92206.41;2074978;69;20537;-75
2023/05/16 08:26:59;;;;;;;;;;;;;;;11.92;73.00;92216.31;2075054;69;20049;-74
2023/05/16 08:29:25;;;;;;;;;;;;;;;11.73;74.47;92210.38;2075014;69;20041;-73
2023/05/16 08:31:51;;;;;;;;;;;;;;;11.90;73.39;92218.28;2074972;69;20091;-74
2023/05/16 08:34:16;;;;;;;;;;;;;;;11.98;72.61;92213.03;2074947;69;20496;-74
2023/05/16 08:36:42;;;;;;;;;;;;;;;12.13;72.13;92212.34;2075069;69;20135;-74
2023/05/16 08:39:10;;;;;;;;;;;;;;;12.28;70.47;92205.31;2075038;69;20055;-74
2023/05/16 08:41:35;;;;;;;;;;;;;;;11.92;72.47;92213.50;2074900;69;20041;-74
2023/05/16 08:44:01;;;;;;;;;;;;;;;12.18;71.34;92213.28;2075005;69;20144;-75
2023/05/16 08:46:27;;;;;;;;;;;;;;;12.25;71.45;92214.28;2074912;69;20055;-74
2023/05/16 08:48:53;;;;;;;;;;;;;;;12.42;70.21;92208.03;2074829;69;20278;-74
2023/05/16 08:51:19;;;;;;;;;;;;;;;12.03;72.78;92216.78;2075321;69;20059;-74
2023/05/16 08:53:51;;;;;;;;;;;;;;;12.30;70.97;92210.28;2074975;69;20052;-74
2023/05/16 08:56:17;;;;;;;;;;;;;;;12.36;71.26;92211.28;2071742;69;20053;-73
2023/05/16 08:58:43;;;;;;;;;;;;;;;12.21;71.72;92217.66;2075112;69;20044;-73
2023/05/16 09:01:08;;;;;;;;;;;;;;;12.15;72.80;92218.09;2074980;69;20055;-74
2023/05/16 09:03:37;;;;;;;;;;;;;;;12.12;73.28;92221.44;2075102;69;20075;-74
2023/05/16 09:06:04;;;;;;;;;;;;;;;12.10;74.46;92218.56;2075028;69;20056;-74
2023/05/16 09:08:30;;;;;;;;;;;;;;;12.35;72.33;92209.13;2075077;69;20080;-74
2023/05/16 09:10:56;;;;;;;;;;;;;;;12.39;71.44;92214.97;2071529;69;20040;-74
2023/05/16 09:13:21;;;;;;;;;;;;;;;12.75;71.12;92207.41;2074964;69;20111;-74
2023/05/16 09:16:06;;;;;;;;;;;;;;;12.68;70.93;92200.75;2074894;69;20076;-76
2023/05/16 09:18:34;;;;;;;;;;;;;;;12.22;73.50;92196.53;2074916;69;20048;-76
2023/05/16 09:21:00;;;;;;;;;;;;;;;12.50;72.60;92207.69;2071598;69;20091;-76
2023/05/16 09:23:25;;;;;;;;;;;;;;;12.44;72.60;92203.22;2071704;69;20456;-76
2023/05/16 09:25:54;;;;;;;;;;;;;;;12.48;72.55;92208.31;2074829;69;20473;-76
2023/05/16 09:28:21;;;;;;;;;;;;;;;12.69;71.69;92201.47;2074868;69;20052;-74
2023/05/16 09:30:47;;;;;;;;;;;;;;;12.85;71.28;92205.03;2075057;69;20056;-77
2023/05/16 09:33:13;;;;;;;;;;;;;;;12.77;71.21;92209.59;2075174;69;20485;-76
2023/05/16 09:35:38;;;;;;;;;;;;;;;12.81;70.57;92213.34;2071861;69;20464;-75
2023/05/16 09:38:04;;;;;;;;;;;;;;;12.86;69.93;92217.78;2075326;69;20047;-75
2023/05/16 09:40:29;;;;;;;;;;;;;;;12.77;70.28;92218.06;2075105;69;20407;-75
2023/05/16 09:43:05;;;;;;;;;;;;;;;12.71;70.63;92212.88;2071865;69;20147;-76
2023/05/16 09:45:32;;;;;;;;;;;;;;;12.82;70.87;92214.78;2075302;69;20194;-76
2023/05/16 09:48:03;;;;;;;;;;;;;;;13.00;69.68;92222.63;2075637;69;20140;-76
2023/05/16 09:50:31;;;;;;;;;;;;;;;12.95;70.15;92222.44;2072390;69;20060;-76
2023/05/16 09:52:56;;;;;;;;;;;;;;;12.94;70.51;92214.59;2075037;69;20055;-77
2023/05/16 09:55:22;;;;;;;;;;;;;;;12.98;69.73;92207.03;2074928;69;20052;-76
2023/05/16 09:57:47;;;;;;;;;;;;;;;12.80;70.50;92216.81;2075047;69;20560;-76
2023/05/16 10:00:13;;;;;;;;;;;;;;;13.05;70.35;92210.13;2075053;69;20052;-76
2023/05/16 10:02:39;;;;;;;;;;;;;;;12.54;72.86;92208.59;2075023;69;20052;-76
2023/05/16 10:05:06;;;;;;;;;;;;;;;12.93;70.85;92202.59;2075315;69;20044;-75
2023/05/16 10:07:33;;;;;;;;;;;;;;;13.37;69.39;92203.06;2071608;69;20052;-76
2023/05/16 10:10:07;;;;;;;;;;;;;;;13.57;67.51;92202.47;2071563;69;20049;-77
2023/05/16 10:12:33;;;;;;;;;;;;;;;13.75;67.23;92194.03;2075376;69;20492;-77
2023/05/16 10:15:02;;;;;;;;;;;;;;;13.71;68.08;92195.31;2075599;69;20441;-76
2023/05/16 10:17:31;;;;;;;;;;;;;;;13.89;67.48;92191.78;2075223;69;20052;-76
2023/05/16 10:19:56;;;;;;;;;;;;;;;13.80;67.79;92196.38;2074814;69;20481;-77
2023/05/16 10:22:22;;;;;;;;;;;;;;;13.80;67.49;92204.13;2075143;69;20048;-77
2023/05/16 10:25:09;;;;;;;;;;;;;;;13.82;66.74;92199.28;2075238;69;20074;-75
2023/05/16 10:27:36;;;;;;;;;;;;;;;13.83;67.60;92197.16;2070108;69;20140;-76
2023/05/16 10:30:02;;;;;;;;;;;;;;;13.68;67.56;92202.25;2071802;69;20536;-75
2023/05/16 10:32:30;;;;;;;;;;;;;;;13.69;66.98;92200.88;2075267;69;20117;-77
2023/05/16 10:35:01;;;;;;;;;;;;;;;13.82;66.31;92196.44;2075342;69;20044;-76
2023/05/16 10:37:28;;;;;;;;;;;;;;;13.88;66.06;92202.38;2075370;69;20048;-76
2023/05/16 10:39:55;;;;;;;;;;;;;;;13.74;65.77;92207.41;2075097;69;20060;-77
2023/05/16 10:42:21;;;;;;;;;;;;;;;13.61;65.34;92199.81;2075202;69;20511;-76
2023/05/16 10:44:46;;;;;;;;;;;;;;;13.69;66.03;92200.16;2075277;69;20048;-77
2023/05/16 10:47:17;;;;;;;;;;;;;;;13.58;66.70;92201.84;2069168;69;20066;-77
2023/05/16 10:49:44;;;;;;;;;;;;;;;13.90;65.63;92196.78;2075378;69;20147;-77
2023/05/16 10:52:11;;;;;;;;;;;;;;;14.01;65.90;92211.34;2075357;69;20136;-77
2023/05/16 10:54:40;;;;;;;;;;;;;;;13.82;65.95;92207.03;2075183;69;20072;-77
2023/05/16 10:57:10;;;;;;;;;;;;;;;13.40;67.72;92201.78;2075338;69;20055;-77
2023/05/16 10:59:49;;;;;;;;;;;;;;;13.46;67.95;92199.22;2075241;69;20044;-76
2023/05/16 11:02:23;;;;;;;;;;;;;;;12.09;73.08;92200.16;2075258;69;20052;-76
2023/05/16 11:04:51;;;;;;;;;;;;;;;12.24;73.00;92201.56;2075225;69;20540;-77
2023/05/16 11:07:17;;;;;;;;;;;;;;;13.11;71.58;92201.94;2069049;69;20083;-76
2023/05/16 11:09:44;;;;;;;;;;;;;;;12.97;71.35;92202.75;2075038;69;20048;-77
2023/05/16 11:12:09;;;;;;;;;;;;;;;12.85;72.33;92204.31;2071883;69;20491;-77
2023/05/16 11:14:41;;;;;;;;;;;;;;;13.20;71.16;92198.81;2071792;69;20036;-78
2023/05/16 11:17:06;;;;;;;;;;;;;;;13.48;69.12;92202.13;2065156;69;20047;-78
2023/05/16 11:19:39;;;;;;;;;;;;;;;13.46;70.26;92198.47;2055723;70;20043;-77
2023/05/16 11:22:05;;;;;;;;;;;;;;;13.64;69.24;92196.41;2055549;69;20432;-76
2023/05/16 11:24:31;;;;;;;;;;;;;;;13.67;68.42;92192.31;2055508;69;20046;-76
2023/05/16 11:27:00;;;;;;;;;;;;;;;13.80;67.79;92199.19;2055573;69;20086;-77
2023/05/16 11:29:34;;;;;;;;;;;;;;;13.55;67.28;92199.56;2055499;69;20078;-78
2023/05/16 11:32:00;;;;;;;;;;;;;;;13.65;66.82;92192.25;2055417;70;20558;-77
2023/05/16 11:34:26;;;;;;;;;;;;;;;13.58;67.90;92201.84;2055684;69;20050;-79
2023/05/16 11:37:00;;;;;;;;;;;;;;;13.94;67.34;92194.13;2056108;69;20428;-79
2023/05/16 11:39:26;;;;;;;;;;;;;;;13.93;68.46;92192.66;2055639;70;20050;-77
2023/05/16 11:41:55;;;;;;;;;;;;;;;13.94;68.30;92202.59;2055814;69;20066;-77
2023/05/16 11:44:20;;;;;;;;;;;;;;;13.93;68.24;92195.50;2055567;69;20137;-78
2023/05/16 11:46:46;;;;;;;;;;;;;;;13.97;68.17;92194.91;2055126;70;20568;-78
2023/05/16 11:49:12;;;;;;;;;;;;;;;14.17;67.63;92204.22;2055479;70;20066;-78
2023/05/16 11:51:42;;;;;;;;;;;;;;;14.11;67.63;92198.34;2055615;69;20043;-78
2023/05/16 11:54:08;;;;;;;;;;;;;;;13.94;68.24;92199.06;2055579;70;20430;-79
2023/05/16 11:56:35;;;;;;;;;;;;;;;14.06;67.62;92195.97;2055363;70;20065;-77
2023/05/16 11:59:00;;;;;;;;;;;;;;;13.72;68.72;92188.28;2055597;70;20115;-77
2023/05/16 12:01:38;;;;;;;;;;;;;;;14.13;67.91;92203.34;2055858;69;20058;-78
2023/05/16 12:04:11;;;;;;;;;;;;;;;13.44;71.06;92195.59;2056234;69;20051;-79
2023/05/16 12:06:37;;;;;;;;;;;;;;;13.44;70.35;92193.47;2056739;69;20141;-78
2023/05/16 12:09:10;;;;;;;;;;;;;;;13.56;70.94;92201.00;2055917;69;20137;-77
2023/05/16 12:11:37;;;;;;;;;;;;;;;13.89;68.40;92209.47;2055432;70;20051;-78
2023/05/16 12:14:03;;;;;;;;;;;;;;;13.90;69.14;92202.44;2055509;70;20526;-78
2023/05/16 12:16:28;;;;;;;;;;;;;;;14.07;68.55;92205.94;2055445;69;20046;-75
2023/05/16 12:18:54;;;;;;;;;;;;;;;14.16;68.09;92205.59;2055596;70;20454;-79
2023/05/16 12:21:20;;;;;;;;;;;;;;;13.89;69.40;92205.94;2055497;70;20085;-76
2023/05/16 12:23:47;;;;;;;;;;;;;;;14.10;68.50;92208.19;2068323;69;20089;-80
2023/05/16 12:26:13;;;;;;;;;;;;;;;14.24;68.00;92203.06;2065529;69;20078;-77
2023/05/16 12:28:38;;;;;;;;;;;;;;;13.81;67.35;92203.47;2055419;70;20054;-78
2023/05/16 12:31:10;;;;;;;;;;;;;;;13.90;67.81;92208.09;2055471;69;20049;-77
2023/05/16 12:33:36;;;;;;;;;;;;;;;13.36;71.20;92195.97;2068430;69;20200;-78
2023/05/16 12:36:03;;;;;;;;;;;;;;;13.91;68.52;92200.34;2055355;70;20264;-77
2023/05/16 12:38:28;;;;;;;;;;;;;;;14.50;67.46;92202.69;2055367;70;20070;-77
2023/05/16 12:40:57;;;;;;;;;;;;;;;14.15;67.85;92201.28;2068410;69;20051;-77
2023/05/16 12:43:22;;;;;;;;;;;;;;;14.47;66.97;92198.28;2054730;69;20097;-76
2023/05/16 12:45:51;;;;;;;;;;;;;;;14.16;65.67;92196.38;2065123;69;20055;-76